createdAt,value
2022-08-05T00:04:13.501Z,0
2022-08-05T00:10:32.722Z,0
2022-08-05T00:16:55.729Z,0
2022-08-05T00:23:15.741Z,0
2022-08-05T00:29:38.724Z,0
2022-08-05T00:36:15.328Z,0
2022-08-05T00:42:31.454Z,0
2022-08-05T00:48:50.686Z,0
2022-08-05T00:55:04.723Z,0
2022-08-05T01:01:43.091Z,0
2022-08-05T01:08:30.018Z,0
2022-08-05T01:14:08.638Z,0
2022-08-05T01:20:30.727Z,0
2022-08-05T01:26:50.726Z,0
2022-08-05T01:33:13.727Z,0
2022-08-05T01:39:34.616Z,0
2022-08-05T01:45:57.174Z,0
2022-08-05T01:52:17.763Z,0
2022-08-05T01:58:41.125Z,0
2022-08-05T02:04:59.722Z,0
2022-08-05T02:11:23.751Z,0
2022-08-05T02:18:29.044Z,0
2022-08-05T02:24:05.767Z,0
2022-08-05T02:30:26.871Z,0
2022-08-05T02:36:48.766Z,0
2022-08-05T02:43:08.723Z,0
2022-08-05T02:49:35.607Z,0
2022-08-05T02:55:52.283Z,0
2022-08-05T03:02:14.760Z,0
2022-08-05T03:08:34.717Z,0
2022-08-05T03:14:57.719Z,0
2022-08-05T03:21:17.740Z,0
2022-08-05T03:27:57.591Z,0
2022-08-05T03:34:00.775Z,0
2022-08-05T03:40:24.468Z,0
2022-08-05T03:46:43.796Z,0
2022-08-05T03:54:59.013Z,0
2022-08-05T04:09:31.648Z,0
2022-08-05T04:15:52.964Z,0
2022-08-05T04:22:14.765Z,0
2022-08-05T04:28:34.738Z,0
2022-08-05T04:34:57.734Z,0
2022-08-05T04:41:17.772Z,0
2022-08-05T04:47:42.812Z,0
2022-08-05T04:54:01.297Z,5.62
2022-08-05T05:00:23.916Z,16.88
2022-08-05T05:06:44.578Z,22.5
2022-08-05T05:13:06.756Z,16.88
2022-08-05T05:19:27.566Z,16.88
2022-08-05T05:25:49.767Z,22.5
2022-08-05T05:32:12.611Z,16.88
2022-08-05T05:38:32.726Z,16.88
2022-08-05T05:44:52.758Z,16.88
2022-08-05T05:51:16.171Z,22.5
2022-08-05T05:57:42.677Z,22.5
2022-08-05T06:04:01.491Z,28.12
2022-08-05T06:10:18.723Z,33.75
2022-08-05T06:16:41.774Z,45
2022-08-05T06:23:01.736Z,67.5
2022-08-05T06:29:49.192Z,61.88
2022-08-05T06:36:04.294Z,67.5
2022-08-05T06:42:07.735Z,61.88
2022-08-05T06:48:47.500Z,39.38
2022-08-05T06:54:52.079Z,39.38
2022-08-05T07:01:10.762Z,22.5
2022-08-05T07:07:35.310Z,33.75
2022-08-05T07:13:58.656Z,16.88
2022-08-05T07:20:32.749Z,11.25
2022-08-05T07:26:36.728Z,22.5
2022-08-05T07:32:59.807Z,16.88
2022-08-05T07:39:24.597Z,16.88
2022-08-05T07:45:57.922Z,28.12
2022-08-05T07:52:02.769Z,67.5
2022-08-05T07:58:54.609Z,61.88
2022-08-05T08:04:45.770Z,56.25
2022-08-05T08:11:09.096Z,61.88
2022-08-05T08:17:28.734Z,67.5
2022-08-05T08:24:00.566Z,33.75
2022-08-05T08:30:20.466Z,56.25
2022-08-05T08:36:46.322Z,73.12
2022-08-05T08:42:55.033Z,45
2022-08-05T08:50:05.600Z,90
2022-08-05T08:56:02.272Z,112.5
2022-08-05T09:02:01.046Z,78.75
2022-08-05T09:08:20.777Z,78.75
2022-08-05T09:14:55.453Z,84.38
2022-08-05T09:21:03.793Z,101.25
2022-08-05T09:28:03.445Z,106.88
2022-08-05T09:33:46.730Z,84.38
2022-08-05T09:40:09.801Z,78.75
2022-08-05T09:56:35.643Z,61.88
2022-08-05T10:02:58.202Z,61.88
2022-08-05T10:09:25.282Z,95.62
2022-08-05T10:15:38.732Z,56.25
2022-08-05T10:22:01.749Z,78.75
2022-08-05T10:28:29.041Z,78.75
2022-08-05T10:34:44.866Z,56.25
2022-08-05T10:41:04.849Z,33.75
2022-08-05T10:47:31.220Z,39.38
2022-08-05T10:53:47.999Z,61.88
2022-08-05T11:00:12.103Z,39.38
2022-08-05T11:06:31.307Z,45
2022-08-05T11:12:54.298Z,39.38
2022-08-05T11:20:09.629Z,39.38
2022-08-05T11:26:03.719Z,61.88
2022-08-05T11:32:00.222Z,56.25
2022-08-05T11:38:27.263Z,61.88
2022-08-05T11:44:41.040Z,95.62
2022-08-05T11:51:02.745Z,90
2022-08-05T11:57:24.576Z,45
2022-08-05T12:03:55.469Z,129.38
2022-08-05T12:10:09.385Z,140.62
2022-08-05T12:16:28.852Z,185.62
2022-08-05T12:22:48.766Z,123.75
2022-08-05T12:29:11.839Z,123.75
2022-08-05T12:35:37.108Z,118.12
2022-08-05T12:41:56.605Z,123.75
2022-08-05T12:48:17.787Z,163.12
2022-08-05T12:54:37.733Z,151.88
2022-08-05T13:01:59.456Z,157.5
2022-08-05T13:07:31.135Z,168.75
2022-08-05T13:14:04.460Z,174.38
2022-08-05T13:20:04.095Z,185.62
2022-08-05T13:26:30.009Z,213.75
2022-08-05T13:32:50.493Z,230.62
2022-08-05T13:39:08.366Z,146.25
2022-08-05T13:45:30.977Z,174.38
2022-08-05T13:51:49.761Z,151.88
2022-08-05T13:58:12.730Z,95.62
2022-08-05T14:04:32.719Z,106.88
2022-08-05T14:10:59.889Z,180
2022-08-05T14:17:16.783Z,112.5
2022-08-05T14:23:38.764Z,185.62
2022-08-05T14:29:58.727Z,208.12
2022-08-05T14:36:21.872Z,208.12
2022-08-05T14:42:41.723Z,84.38
2022-08-05T14:49:07.102Z,84.38
2022-08-05T14:55:24.771Z,106.88
2022-08-05T15:01:48.590Z,78.75
2022-08-05T15:08:12.382Z,39.38
2022-08-05T15:14:34.102Z,22.5
2022-08-05T15:20:50.910Z,45
2022-08-05T15:37:05.042Z,45
2022-08-05T15:43:21.987Z,45
2022-08-05T15:49:48.085Z,39.38
2022-08-05T15:56:06.396Z,56.25
2022-08-05T16:02:28.761Z,50.62
2022-08-05T16:08:47.762Z,67.5
2022-08-05T16:15:10.729Z,50.62
2022-08-05T16:21:59.129Z,39.38
2022-08-05T16:28:01.171Z,33.75
2022-08-05T16:34:13.727Z,39.38
2022-08-05T16:40:36.786Z,56.25
2022-08-05T16:46:56.728Z,39.38
2022-08-05T16:53:22.730Z,33.75
2022-08-05T16:59:49.541Z,22.5
2022-08-05T17:06:02.735Z,33.75
2022-08-05T17:12:50.753Z,28.12
2022-08-05T17:18:45.736Z,28.12
2022-08-05T17:25:09.665Z,22.5
2022-08-05T17:31:41.208Z,28.12
2022-08-05T17:37:48.761Z,22.5
2022-08-05T17:44:11.774Z,22.5
2022-08-05T17:50:31.726Z,28.12
2022-08-05T17:56:54.739Z,16.88
2022-08-05T18:03:24.016Z,16.88
2022-08-05T18:09:59.286Z,11.25
2022-08-05T18:15:57.761Z,11.25
2022-08-05T18:22:20.736Z,11.25
2022-08-05T18:28:40.737Z,16.88
2022-08-05T18:35:05.086Z,11.25
2022-08-05T18:41:54.880Z,5.62
2022-08-05T18:47:50.179Z,0
2022-08-05T18:54:06.741Z,0
2022-08-05T19:00:29.746Z,0
2022-08-05T19:06:49.776Z,0
2022-08-05T19:13:15.687Z,0
2022-08-05T19:19:32.763Z,0
2022-08-05T19:26:01.319Z,0
2022-08-05T19:32:15.745Z,0
2022-08-05T19:38:38.764Z,0
2022-08-05T19:44:58.723Z,0
2022-08-05T19:51:56.639Z,0
2022-08-05T19:57:46.625Z,0
2022-08-05T20:04:04.732Z,0
2022-08-05T20:10:25.081Z,0
2022-08-05T20:16:47.721Z,0
2022-08-05T20:23:07.765Z,0
2022-08-05T20:29:30.744Z,0
2022-08-05T20:35:50.724Z,0
2022-08-05T20:42:13.770Z,0
2022-08-05T20:48:33.729Z,0
2022-08-05T20:55:00.088Z,0
2022-08-05T21:01:16.788Z,0
2022-08-05T21:24:39.742Z,0
2022-08-05T21:31:02.723Z,0
2022-08-05T21:37:22.763Z,0
2022-08-05T21:43:50.861Z,0
2022-08-05T21:50:05.754Z,0
2022-08-05T21:56:28.770Z,0
2022-08-05T22:20:42.863Z,0
2022-08-05T22:27:02.753Z,0
2022-08-05T22:33:55.267Z,0
2022-08-05T22:39:45.822Z,0
2022-08-05T22:46:11.953Z,0
2022-08-05T22:52:30.537Z,0
2022-08-05T22:58:51.773Z,0
2022-08-05T23:05:11.753Z,0
2022-08-05T23:11:34.771Z,0
2022-08-05T23:18:00.284Z,0
2022-08-05T23:24:17.785Z,0
2022-08-05T23:30:39.841Z,0
2022-08-05T23:37:00.766Z,0
2022-08-05T23:43:24.585Z,0
2022-08-05T23:49:43.764Z,0
2022-08-05T23:56:03.816Z,0
